Weather observations for the past three days for
Canefield Airport
Imperial (Metric)
Date Time (ast) Wind (mph) Vis. (mi.) Weather Sky Cond. Temperature (ºF) Relative Humidity Wind Chill (°F) Heat Index (°F) Pressure Precipitation (in)
Air Dwpt 6 hour altimeter (in) sea level (mb) 1 hr 3 hr 6 hr
Max. Min.
03 16:00 NW 2 0.00 A Few Clouds FEW022 89.6 80.6 75% 108 0 0.0
03 15:00 NW 3 0.00 A Few Clouds FEW024 91.4 80.6 71% 111 0 0.0
03 14:00 NW 2 0.00 A Few Clouds FEW024 91.4 80.6 71% 111 0 0.0
03 13:00 NW 2 0.00 A Few Clouds FEW024 91.4 80.6 71% 111 0 0.0
03 12:00 W 1 0.00 A Few Clouds FEW024 93.2 80.6 67% 113 0 0.0
03 11:00 NW 2 0.00 A Few Clouds FEW022 89.6 78.8 71% 105 0 0.0
03 10:00 NW 3 0.00 A Few Clouds FEW020 86 78.8 79% 99 0 0.0
03 09:00 NW 3 0.00 A Few Clouds FEW022 84.2 77 79% 94 0 0.0
03 08:00 S 2 0.00 A Few Clouds FEW022 86 78.8 79% 99 0 0.0
02 16:00 NW 2 0.00 Mostly Cloudy BKN018TCU 86 78.8 79% 99 0 0.0
02 15:00 NW 3 0.00 Mostly Cloudy BKN018 87.8 80.6 79% 105 0 0.0
02 14:00 NW 5 0.00 Partly Cloudy SCT018 87.8 78.8 75% 102 0 0.0
02 13:00 NW 2 0.00 Mostly Cloudy BKN018 86 78.8 79% 99 0 0.0
02 12:00 NW 2 0.00 Partly Cloudy SCT018 91.4 80.6 71% 111 0 0.0
02 11:00 W 2 0.00 A Few Clouds FEW018 89.6 78.8 71% 105 0 0.0
02 10:00 NW 2 0.00 Mostly Cloudy BKN020 89.6 77 67% 103 0 0.0
02 09:00 N 9 0.00 A Few Clouds FEW022 84.2 77 79% 94 0 0.0
02 08:00 SE 2 0.00 A Few Clouds FEW022 84.2 77 79% 94 0 0.0
01 16:00 SE 8 0.00 A Few Clouds FEW022 89.6 75.2 63% 100 0 0.0
01 15:00 SE 9 0.00 Partly Cloudy SCT020 89.6 75.2 63% 100 0 0.0
01 14:00 W 1 0.00 Partly Cloudy SCT018 91.4 80.6 71% 111 0 0.0
01 13:00 SW 2 0.00 Mostly Cloudy BKN020 89.6 78.8 71% 105 0 0.0
01 12:00 NW 3 0.00 Partly Cloudy SCT022 91.4 78.8 67% 108 0 0.0
01 11:00 NW 2 0.00 Mostly Cloudy BKN022 89.6 80.6 75% 108 0 0.0
01 10:00 NW 2 0.00 Mostly Cloudy BKN018 87.8 80.6 79% 105 0 0.0
01 09:00 N 3 0.00 A Few Clouds FEW017 86 78.8 79% 99 0 0.0
01 08:00 N 2 0.00 Partly Cloudy SCT017 82.4 78.8 89% 92 0 0.0
Date Time (ast) Wind (mph) Vis. (mi.) Weather Sky Cond. Air Dwpt Max. Min. Relative Humidity Wind Chill (°F) Heat Index (°F) altimeter (in) sea level (mb) 1 hr 3 hr 6 hr
6 hour
Temperature (ºF) Pressure Precipitation (in)